sensor_id;sensor_type;location;lat;lon;timestamp;P1;durP1;ratioP1;P2;durP2;ratioP2
69979;SDS011;57318;56.232;43.944;2022-12-24T00:00:21;30.67;;;13.70;;
69979;SDS011;57318;56.232;43.944;2022-12-24T00:02:49;31.25;;;14.02;;
69979;SDS011;57318;56.232;43.944;2022-12-24T00:05:14;28.33;;;13.48;;
69979;SDS011;57318;56.232;43.944;2022-12-24T00:07:40;32.27;;;11.33;;
69979;SDS011;57318;56.232;43.944;2022-12-24T00:10:06;35.23;;;14.80;;
69979;SDS011;57318;56.232;43.944;2022-12-24T00:12:32;34.90;;;14.48;;
69979;SDS011;57318;56.232;43.944;2022-12-24T00:14:58;36.17;;;15.90;;
69979;SDS011;57318;56.232;43.944;2022-12-24T00:17:23;32.93;;;14.93;;
69979;SDS011;57318;56.232;43.944;2022-12-24T00:19:49;33.13;;;13.90;;
69979;SDS011;57318;56.232;43.944;2022-12-24T00:22:14;40.17;;;15.77;;
69979;SDS011;57318;56.232;43.944;2022-12-24T00:24:40;35.20;;;13.97;;
69979;SDS011;57318;56.232;43.944;2022-12-24T00:27:06;34.43;;;13.60;;
69979;SDS011;57318;56.232;43.944;2022-12-24T00:29:32;36.10;;;17.30;;
69979;SDS011;57318;56.232;43.944;2022-12-24T00:31:58;36.47;;;14.45;;
69979;SDS011;57318;56.232;43.944;2022-12-24T00:34:24;34.22;;;15.57;;
69979;SDS011;57318;56.232;43.944;2022-12-24T00:36:50;36.92;;;15.60;;
69979;SDS011;57318;56.232;43.944;2022-12-24T00:39:16;36.87;;;17.50;;
69979;SDS011;57318;56.232;43.944;2022-12-24T00:41:41;32.90;;;13.67;;
69979;SDS011;57318;56.232;43.944;2022-12-24T00:44:07;37.80;;;15.83;;
69979;SDS011;57318;56.232;43.944;2022-12-24T00:46:37;33.67;;;13.27;;
69979;SDS011;57318;56.232;43.944;2022-12-24T00:49:04;34.63;;;14.95;;
69979;SDS011;57318;56.232;43.944;2022-12-24T00:51:31;35.88;;;14.73;;
69979;SDS011;57318;56.232;43.944;2022-12-24T00:56:23;38.50;;;16.25;;
69979;SDS011;57318;56.232;43.944;2022-12-24T00:58:49;37.27;;;15.77;;
69979;SDS011;57318;56.232;43.944;2022-12-24T01:01:14;32.27;;;11.53;;
69979;SDS011;57318;56.232;43.944;2022-12-24T01:03:40;36.25;;;16.33;;
69979;SDS011;57318;56.232;43.944;2022-12-24T01:06:07;32.87;;;13.80;;
69979;SDS011;57318;56.232;43.944;2022-12-24T01:08:37;36.17;;;14.43;;
69979;SDS011;57318;56.232;43.944;2022-12-24T01:11:03;37.70;;;15.48;;
69979;SDS011;57318;56.232;43.944;2022-12-24T01:13:30;35.97;;;15.65;;
69979;SDS011;57318;56.232;43.944;2022-12-24T01:15:56;34.40;;;14.23;;
69979;SDS011;57318;56.232;43.944;2022-12-24T01:18:22;38.07;;;18.07;;
69979;SDS011;57318;56.232;43.944;2022-12-24T01:20:58;36.15;;;13.82;;
69979;SDS011;57318;56.232;43.944;2022-12-24T01:23:26;39.22;;;14.40;;
69979;SDS011;57318;56.232;43.944;2022-12-24T01:28:19;38.70;;;16.60;;
69979;SDS011;57318;56.232;43.944;2022-12-24T01:30:45;44.05;;;17.85;;
69979;SDS011;57318;56.232;43.944;2022-12-24T01:33:12;39.33;;;17.17;;
69979;SDS011;57318;56.232;43.944;2022-12-24T01:35:41;44.40;;;15.75;;
69979;SDS011;57318;56.232;43.944;2022-12-24T01:38:07;40.67;;;16.33;;
69979;SDS011;57318;56.232;43.944;2022-12-24T01:40:36;39.47;;;17.25;;
69979;SDS011;57318;56.232;43.944;2022-12-24T01:43:24;45.47;;;19.40;;
69979;SDS011;57318;56.232;43.944;2022-12-24T01:45:54;43.70;;;17.23;;
69979;SDS011;57318;56.232;43.944;2022-12-24T01:50:45;41.63;;;15.80;;
69979;SDS011;57318;56.232;43.944;2022-12-24T01:53:13;44.30;;;16.33;;
69979;SDS011;57318;56.232;43.944;2022-12-24T01:55:40;43.05;;;18.00;;
69979;SDS011;57318;56.232;43.944;2022-12-24T02:00:32;47.33;;;19.05;;
69979;SDS011;57318;56.232;43.944;2022-12-24T02:02:58;40.80;;;14.17;;
69979;SDS011;57318;56.232;43.944;2022-12-24T02:05:31;54.97;;;19.25;;
69979;SDS011;57318;56.232;43.944;2022-12-24T02:08:06;48.25;;;17.25;;
69979;SDS011;57318;56.232;43.944;2022-12-24T02:10:32;50.22;;;19.77;;
69979;SDS011;57318;56.232;43.944;2022-12-24T02:12:58;50.73;;;18.07;;
69979;SDS011;57318;56.232;43.944;2022-12-24T02:27:17;50.95;;;18.35;;
69979;SDS011;57318;56.232;43.944;2022-12-24T02:30:07;59.40;;;21.02;;
69979;SDS011;57318;56.232;43.944;2022-12-24T02:32:48;47.67;;;16.50;;
69979;SDS011;57318;56.232;43.944;2022-12-24T02:43:43;70.53;;;21.75;;
69979;SDS011;57318;56.232;43.944;2022-12-24T02:46:12;62.05;;;20.88;;
69979;SDS011;57318;56.232;43.944;2022-12-24T02:48:51;67.18;;;23.08;;
69979;SDS011;57318;56.232;43.944;2022-12-24T02:53:48;71.68;;;21.73;;
69979;SDS011;57318;56.232;43.944;2022-12-24T02:56:26;76.83;;;24.63;;
69979;SDS011;57318;56.232;43.944;2022-12-24T03:01:42;71.20;;;20.17;;
69979;SDS011;57318;56.232;43.944;2022-12-24T03:09:53;94.57;;;26.30;;
69979;SDS011;57318;56.232;43.944;2022-12-24T03:12:22;95.10;;;28.75;;
69979;SDS011;57318;56.232;43.944;2022-12-24T03:15:20;86.28;;;25.88;;
69979;SDS011;57318;56.232;43.944;2022-12-24T03:17:49;93.05;;;29.63;;
69979;SDS011;57318;56.232;43.944;2022-12-24T03:20:22;100.28;;;25.80;;
69979;SDS011;57318;56.232;43.944;2022-12-24T03:22:51;108.88;;;27.20;;
69979;SDS011;57318;56.232;43.944;2022-12-24T03:25:17;104.07;;;31.75;;
69979;SDS011;57318;56.232;43.944;2022-12-24T03:27:44;109.03;;;29.45;;
69979;SDS011;57318;56.232;43.944;2022-12-24T03:30:11;108.32;;;29.05;;
69979;SDS011;57318;56.232;43.944;2022-12-24T03:32:38;104.88;;;30.67;;
69979;SDS011;57318;56.232;43.944;2022-12-24T03:35:05;103.50;;;25.80;;
69979;SDS011;57318;56.232;43.944;2022-12-24T03:37:31;154.52;;;31.90;;
69979;SDS011;57318;56.232;43.944;2022-12-24T03:39:57;119.90;;;32.47;;
69979;SDS011;57318;56.232;43.944;2022-12-24T03:42:22;117.33;;;29.50;;
69979;SDS011;57318;56.232;43.944;2022-12-24T03:44:48;117.17;;;28.50;;
69979;SDS011;57318;56.232;43.944;2022-12-24T03:47:14;118.20;;;34.33;;
69979;SDS011;57318;56.232;43.944;2022-12-24T03:49:39;121.53;;;27.50;;
69979;SDS011;57318;56.232;43.944;2022-12-24T03:52:05;144.53;;;32.47;;
69979;SDS011;57318;56.232;43.944;2022-12-24T03:54:31;148.83;;;30.87;;
69979;SDS011;57318;56.232;43.944;2022-12-24T03:56:56;161.53;;;31.93;;
69979;SDS011;57318;56.232;43.944;2022-12-24T03:59:22;179.43;;;31.97;;
69979;SDS011;57318;56.232;43.944;2022-12-24T04:01:48;265.20;;;43.37;;
69979;SDS011;57318;56.232;43.944;2022-12-24T04:04:14;192.18;;;36.83;;
69979;SDS011;57318;56.232;43.944;2022-12-24T04:06:40;175.03;;;30.23;;
69979;SDS011;57318;56.232;43.944;2022-12-24T04:09:05;119.37;;;25.37;;
69979;SDS011;57318;56.232;43.944;2022-12-24T04:11:31;295.33;;;45.27;;
69979;SDS011;57318;56.232;43.944;2022-12-24T04:13:57;173.27;;;32.17;;
69979;SDS011;57318;56.232;43.944;2022-12-24T04:16:23;238.05;;;33.83;;
69979;SDS011;57318;56.232;43.944;2022-12-24T04:18:49;317.90;;;42.17;;
69979;SDS011;57318;56.232;43.944;2022-12-24T04:21:15;336.83;;;38.70;;
69979;SDS011;57318;56.232;43.944;2022-12-24T04:23:41;177.05;;;26.77;;
69979;SDS011;57318;56.232;43.944;2022-12-24T04:26:08;340.67;;;42.42;;
69979;SDS011;57318;56.232;43.944;2022-12-24T04:28:35;262.77;;;32.88;;
69979;SDS011;57318;56.232;43.944;2022-12-24T04:31:03;179.60;;;30.40;;
69979;SDS011;57318;56.232;43.944;2022-12-24T04:33:37;150.40;;;30.00;;
69979;SDS011;57318;56.232;43.944;2022-12-24T04:36:02;373.17;;;47.77;;
69979;SDS011;57318;56.232;43.944;2022-12-24T04:38:29;221.10;;;33.05;;
69979;SDS011;57318;56.232;43.944;2022-12-24T04:43:31;221.20;;;31.25;;
69979;SDS011;57318;56.232;43.944;2022-12-24T04:46:08;352.38;;;42.72;;
69979;SDS011;57318;56.232;43.944;2022-12-24T04:48:43;268.83;;;31.08;;
69979;SDS011;57318;56.232;43.944;2022-12-24T04:51:10;253.95;;;38.35;;
69979;SDS011;57318;56.232;43.944;2022-12-24T04:53:36;222.75;;;34.00;;
69979;SDS011;57318;56.232;43.944;2022-12-24T04:56:02;468.15;;;53.63;;
69979;SDS011;57318;56.232;43.944;2022-12-24T04:58:31;232.38;;;32.70;;
69979;SDS011;57318;56.232;43.944;2022-12-24T05:01:01;294.58;;;39.42;;
69979;SDS011;57318;56.232;43.944;2022-12-24T05:03:31;313.48;;;42.35;;
69979;SDS011;57318;56.232;43.944;2022-12-24T05:06:03;268.75;;;34.67;;
69979;SDS011;57318;56.232;43.944;2022-12-24T05:08:31;128.82;;;31.02;;
69979;SDS011;57318;56.232;43.944;2022-12-24T05:10:58;90.25;;;22.88;;
69979;SDS011;57318;56.232;43.944;2022-12-24T05:13:26;124.30;;;24.15;;
69979;SDS011;57318;56.232;43.944;2022-12-24T05:15:52;96.20;;;22.90;;
69979;SDS011;57318;56.232;43.944;2022-12-24T05:18:19;95.03;;;26.00;;
69979;SDS011;57318;56.232;43.944;2022-12-24T05:20:45;84.37;;;22.07;;
69979;SDS011;57318;56.232;43.944;2022-12-24T05:23:21;85.57;;;22.25;;
69979;SDS011;57318;56.232;43.944;2022-12-24T05:26:12;88.50;;;22.33;;
69979;SDS011;57318;56.232;43.944;2022-12-24T05:28:48;99.95;;;22.25;;
69979;SDS011;57318;56.232;43.944;2022-12-24T05:31:19;105.25;;;24.40;;
69979;SDS011;57318;56.232;43.944;2022-12-24T05:33:45;100.97;;;23.98;;
69979;SDS011;57318;56.232;43.944;2022-12-24T05:36:11;143.45;;;29.77;;
69979;SDS011;57318;56.232;43.944;2022-12-24T05:38:38;206.05;;;29.33;;
69979;SDS011;57318;56.232;43.944;2022-12-24T05:41:03;267.20;;;32.63;;
69979;SDS011;57318;56.232;43.944;2022-12-24T05:43:29;331.00;;;38.22;;
69979;SDS011;57318;56.232;43.944;2022-12-24T05:45:59;234.40;;;33.80;;
69979;SDS011;57318;56.232;43.944;2022-12-24T05:48:25;131.55;;;23.85;;
69979;SDS011;57318;56.232;43.944;2022-12-24T05:50:52;243.60;;;30.52;;
69979;SDS011;57318;56.232;43.944;2022-12-24T05:53:18;125.47;;;22.23;;
69979;SDS011;57318;56.232;43.944;2022-12-24T05:55:44;223.07;;;30.37;;
69979;SDS011;57318;56.232;43.944;2022-12-24T05:58:09;308.90;;;34.83;;
69979;SDS011;57318;56.232;43.944;2022-12-24T06:00:35;256.30;;;32.15;;
69979;SDS011;57318;56.232;43.944;2022-12-24T06:03:01;258.20;;;36.37;;
69979;SDS011;57318;56.232;43.944;2022-12-24T06:05:27;205.10;;;28.50;;
69979;SDS011;57318;56.232;43.944;2022-12-24T06:07:52;200.67;;;31.43;;
69979;SDS011;57318;56.232;43.944;2022-12-24T06:10:18;244.20;;;31.33;;
69979;SDS011;57318;56.232;43.944;2022-12-24T06:12:44;266.90;;;39.27;;
69979;SDS011;57318;56.232;43.944;2022-12-24T06:15:10;260.27;;;37.38;;
69979;SDS011;57318;56.232;43.944;2022-12-24T06:17:36;179.02;;;34.50;;
69979;SDS011;57318;56.232;43.944;2022-12-24T06:20:02;255.43;;;38.63;;
69979;SDS011;57318;56.232;43.944;2022-12-24T06:22:29;143.85;;;26.75;;
69979;SDS011;57318;56.232;43.944;2022-12-24T06:24:54;123.88;;;26.60;;
69979;SDS011;57318;56.232;43.944;2022-12-24T06:27:20;146.60;;;28.20;;
69979;SDS011;57318;56.232;43.944;2022-12-24T06:29:46;131.47;;;27.70;;
69979;SDS011;57318;56.232;43.944;2022-12-24T06:32:11;119.47;;;28.73;;
69979;SDS011;57318;56.232;43.944;2022-12-24T06:34:37;112.03;;;26.27;;
69979;SDS011;57318;56.232;43.944;2022-12-24T06:37:02;112.10;;;23.67;;
69979;SDS011;57318;56.232;43.944;2022-12-24T06:39:28;101.67;;;25.27;;
69979;SDS011;57318;56.232;43.944;2022-12-24T06:41:53;111.97;;;28.43;;
69979;SDS011;57318;56.232;43.944;2022-12-24T06:44:19;119.20;;;28.93;;
69979;SDS011;57318;56.232;43.944;2022-12-24T06:46:45;117.10;;;26.47;;
69979;SDS011;57318;56.232;43.944;2022-12-24T06:49:10;125.53;;;30.13;;
69979;SDS011;57318;56.232;43.944;2022-12-24T06:51:36;133.57;;;28.80;;
69979;SDS011;57318;56.232;43.944;2022-12-24T06:54:01;123.70;;;27.07;;
69979;SDS011;57318;56.232;43.944;2022-12-24T06:58:54;160.80;;;34.17;;
69979;SDS011;57318;56.232;43.944;2022-12-24T07:01:20;137.43;;;29.07;;
69979;SDS011;57318;56.232;43.944;2022-12-24T07:03:46;174.23;;;31.67;;
69979;SDS011;57318;56.232;43.944;2022-12-24T07:06:14;212.57;;;37.47;;
69979;SDS011;57318;56.232;43.944;2022-12-24T07:08:43;292.52;;;44.85;;
69979;SDS011;57318;56.232;43.944;2022-12-24T07:11:09;225.80;;;43.10;;
69979;SDS011;57318;56.232;43.944;2022-12-24T07:13:34;166.00;;;33.07;;
69979;SDS011;57318;56.232;43.944;2022-12-24T07:16:00;129.07;;;29.37;;
69979;SDS011;57318;56.232;43.944;2022-12-24T07:18:28;162.10;;;36.33;;
69979;SDS011;57318;56.232;43.944;2022-12-24T07:20:54;157.93;;;34.60;;
69979;SDS011;57318;56.232;43.944;2022-12-24T07:23:20;163.37;;;29.67;;
69979;SDS011;57318;56.232;43.944;2022-12-24T07:25:45;185.93;;;33.13;;
69979;SDS011;57318;56.232;43.944;2022-12-24T07:28:11;196.80;;;33.93;;
69979;SDS011;57318;56.232;43.944;2022-12-24T07:30:37;175.33;;;31.40;;
69979;SDS011;57318;56.232;43.944;2022-12-24T07:33:02;192.83;;;31.40;;
69979;SDS011;57318;56.232;43.944;2022-12-24T07:35:28;177.93;;;32.07;;
69979;SDS011;57318;56.232;43.944;2022-12-24T07:37:53;180.87;;;28.20;;
69979;SDS011;57318;56.232;43.944;2022-12-24T07:40:19;256.50;;;39.97;;
69979;SDS011;57318;56.232;43.944;2022-12-24T07:42:44;203.70;;;31.93;;
69979;SDS011;57318;56.232;43.944;2022-12-24T07:45:10;165.87;;;29.90;;
69979;SDS011;57318;56.232;43.944;2022-12-24T07:47:36;240.90;;;34.20;;
69979;SDS011;57318;56.232;43.944;2022-12-24T07:50:02;301.33;;;44.67;;
69979;SDS011;57318;56.232;43.944;2022-12-24T07:52:29;267.02;;;39.10;;
69979;SDS011;57318;56.232;43.944;2022-12-24T07:54:55;460.77;;;52.03;;
69979;SDS011;57318;56.232;43.944;2022-12-24T07:57:20;196.47;;;33.30;;
69979;SDS011;57318;56.232;43.944;2022-12-24T07:59:46;281.13;;;39.20;;
69979;SDS011;57318;56.232;43.944;2022-12-24T08:02:11;295.67;;;36.97;;
69979;SDS011;57318;56.232;43.944;2022-12-24T08:04:37;237.10;;;39.83;;
69979;SDS011;57318;56.232;43.944;2022-12-24T08:07:03;530.80;;;58.67;;
69979;SDS011;57318;56.232;43.944;2022-12-24T08:11:59;402.90;;;43.17;;
69979;SDS011;57318;56.232;43.944;2022-12-24T08:14:26;473.00;;;54.75;;
69979;SDS011;57318;56.232;43.944;2022-12-24T08:16:55;680.35;;;70.80;;
69979;SDS011;57318;56.232;43.944;2022-12-24T08:19:22;562.92;;;54.53;;
69979;SDS011;57318;56.232;43.944;2022-12-24T08:21:48;368.98;;;40.13;;
69979;SDS011;57318;56.232;43.944;2022-12-24T08:24:14;502.67;;;56.78;;
69979;SDS011;57318;56.232;43.944;2022-12-24T08:26:40;493.63;;;50.47;;
69979;SDS011;57318;56.232;43.944;2022-12-24T08:29:06;446.30;;;47.58;;
69979;SDS011;57318;56.232;43.944;2022-12-24T08:31:31;475.03;;;52.13;;
69979;SDS011;57318;56.232;43.944;2022-12-24T08:34:04;546.17;;;53.33;;
69979;SDS011;57318;56.232;43.944;2022-12-24T08:36:32;629.58;;;64.15;;
69979;SDS011;57318;56.232;43.944;2022-12-24T08:38:58;621.80;;;63.80;;
69979;SDS011;57318;56.232;43.944;2022-12-24T08:41:28;593.70;;;59.00;;
69979;SDS011;57318;56.232;43.944;2022-12-24T08:43:55;564.90;;;58.25;;
69979;SDS011;57318;56.232;43.944;2022-12-24T08:46:20;534.03;;;52.53;;
69979;SDS011;57318;56.232;43.944;2022-12-24T08:48:46;355.53;;;41.47;;
69979;SDS011;57318;56.232;43.944;2022-12-24T08:51:12;455.27;;;48.33;;
69979;SDS011;57318;56.232;43.944;2022-12-24T08:53:37;311.80;;;39.47;;
69979;SDS011;57318;56.232;43.944;2022-12-24T08:56:04;521.08;;;56.67;;
69979;SDS011;57318;56.232;43.944;2022-12-24T08:58:31;549.00;;;56.40;;
69979;SDS011;57318;56.232;43.944;2022-12-24T09:00:57;217.13;;;27.23;;
69979;SDS011;57318;56.232;43.944;2022-12-24T09:03:23;342.33;;;37.08;;
69979;SDS011;57318;56.232;43.944;2022-12-24T09:05:49;330.10;;;37.27;;
69979;SDS011;57318;56.232;43.944;2022-12-24T09:08:15;446.67;;;48.07;;
69979;SDS011;57318;56.232;43.944;2022-12-24T09:10:40;391.80;;;47.93;;
69979;SDS011;57318;56.232;43.944;2022-12-24T09:13:06;381.43;;;44.97;;
69979;SDS011;57318;56.232;43.944;2022-12-24T09:15:32;303.47;;;34.70;;
69979;SDS011;57318;56.232;43.944;2022-12-24T09:17:57;533.57;;;58.50;;
69979;SDS011;57318;56.232;43.944;2022-12-24T09:20:23;474.53;;;53.90;;
69979;SDS011;57318;56.232;43.944;2022-12-24T09:22:48;301.57;;;37.97;;
69979;SDS011;57318;56.232;43.944;2022-12-24T09:25:14;267.80;;;34.57;;
69979;SDS011;57318;56.232;43.944;2022-12-24T09:27:40;339.53;;;43.03;;
69979;SDS011;57318;56.232;43.944;2022-12-24T09:30:05;258.50;;;39.57;;
69979;SDS011;57318;56.232;43.944;2022-12-24T09:32:32;335.35;;;44.63;;
69979;SDS011;57318;56.232;43.944;2022-12-24T09:34:58;179.00;;;33.03;;
69979;SDS011;57318;56.232;43.944;2022-12-24T09:37:24;253.23;;;36.88;;
69979;SDS011;57318;56.232;43.944;2022-12-24T09:39:50;154.97;;;27.80;;
69979;SDS011;57318;56.232;43.944;2022-12-24T09:44:54;300.53;;;39.43;;
69979;SDS011;57318;56.232;43.944;2022-12-24T09:47:27;294.70;;;37.20;;
69979;SDS011;57318;56.232;43.944;2022-12-24T09:50:08;265.02;;;32.42;;
69979;SDS011;57318;56.232;43.944;2022-12-24T09:52:48;277.23;;;35.17;;
69979;SDS011;57318;56.232;43.944;2022-12-24T09:57:58;605.88;;;61.92;;
69979;SDS011;57318;56.232;43.944;2022-12-24T10:00:30;387.48;;;41.33;;
69979;SDS011;57318;56.232;43.944;2022-12-24T10:03:23;597.55;;;65.05;;
69979;SDS011;57318;56.232;43.944;2022-12-24T10:05:54;548.53;;;54.67;;
69979;SDS011;57318;56.232;43.944;2022-12-24T10:11:16;490.83;;;54.13;;
69979;SDS011;57318;56.232;43.944;2022-12-24T10:13:52;583.20;;;55.63;;
69979;SDS011;57318;56.232;43.944;2022-12-24T10:19:20;557.78;;;55.35;;
69979;SDS011;57318;56.232;43.944;2022-12-24T10:25:03;691.17;;;72.22;;
69979;SDS011;57318;56.232;43.944;2022-12-24T10:27:34;584.85;;;55.13;;
69979;SDS011;57318;56.232;43.944;2022-12-24T10:30:13;817.65;;;82.38;;
69979;SDS011;57318;56.232;43.944;2022-12-24T10:32:41;680.67;;;70.63;;
69979;SDS011;57318;56.232;43.944;2022-12-24T10:37:38;334.25;;;40.20;;
69979;SDS011;57318;56.232;43.944;2022-12-24T10:40:05;319.77;;;35.88;;
69979;SDS011;57318;56.232;43.944;2022-12-24T10:42:39;437.95;;;51.30;;
69979;SDS011;57318;56.232;43.944;2022-12-24T10:45:12;658.05;;;64.22;;
69979;SDS011;57318;56.232;43.944;2022-12-24T10:47:40;549.53;;;57.88;;
69979;SDS011;57318;56.232;43.944;2022-12-24T10:50:17;492.67;;;54.42;;
69979;SDS011;57318;56.232;43.944;2022-12-24T10:52:48;448.67;;;51.13;;
69979;SDS011;57318;56.232;43.944;2022-12-24T10:55:21;541.97;;;56.80;;
69979;SDS011;57318;56.232;43.944;2022-12-24T10:58:00;647.05;;;66.47;;
69979;SDS011;57318;56.232;43.944;2022-12-24T11:00:29;415.98;;;43.58;;
69979;SDS011;57318;56.232;43.944;2022-12-24T11:08:38;696.42;;;60.38;;
69979;SDS011;57318;56.232;43.944;2022-12-24T11:11:08;762.80;;;73.97;;
69979;SDS011;57318;56.232;43.944;2022-12-24T11:13:42;510.08;;;48.72;;
69979;SDS011;57318;56.232;43.944;2022-12-24T11:18:51;643.90;;;60.83;;
69979;SDS011;57318;56.232;43.944;2022-12-24T11:21:27;804.55;;;84.53;;
69979;SDS011;57318;56.232;43.944;2022-12-24T11:26:36;471.88;;;55.72;;
69979;SDS011;57318;56.232;43.944;2022-12-24T11:31:38;669.53;;;68.65;;
69979;SDS011;57318;56.232;43.944;2022-12-24T11:34:17;796.47;;;85.03;;
69979;SDS011;57318;56.232;43.944;2022-12-24T11:36:49;556.97;;;62.78;;
69979;SDS011;57318;56.232;43.944;2022-12-24T11:39:17;298.45;;;37.35;;
69979;SDS011;57318;56.232;43.944;2022-12-24T11:41:48;296.88;;;35.13;;
69979;SDS011;57318;56.232;43.944;2022-12-24T11:44:26;184.10;;;28.60;;
69979;SDS011;57318;56.232;43.944;2022-12-24T11:46:53;175.40;;;30.00;;
69979;SDS011;57318;56.232;43.944;2022-12-24T11:54:35;119.95;;;28.52;;
69979;SDS011;57318;56.232;43.944;2022-12-24T11:57:10;162.77;;;33.95;;
69979;SDS011;57318;56.232;43.944;2022-12-24T11:59:42;118.20;;;28.42;;
69979;SDS011;57318;56.232;43.944;2022-12-24T12:04:48;113.97;;;30.10;;
69979;SDS011;57318;56.232;43.944;2022-12-24T12:07:19;120.82;;;30.13;;
69979;SDS011;57318;56.232;43.944;2022-12-24T12:09:51;118.93;;;26.85;;
69979;SDS011;57318;56.232;43.944;2022-12-24T12:12:23;96.15;;;24.40;;
69979;SDS011;57318;56.232;43.944;2022-12-24T12:14:53;97.45;;;24.67;;
69979;SDS011;57318;56.232;43.944;2022-12-24T12:20:27;110.60;;;25.52;;
69979;SDS011;57318;56.232;43.944;2022-12-24T12:23:04;101.40;;;34.25;;
69979;SDS011;57318;56.232;43.944;2022-12-24T12:26:38;97.28;;;28.95;;
69979;SDS011;57318;56.232;43.944;2022-12-24T12:28:42;99.57;;;26.65;;
69979;SDS011;57318;56.232;43.944;2022-12-24T12:36:24;83.63;;;21.60;;
69979;SDS011;57318;56.232;43.944;2022-12-24T12:38:55;105.85;;;27.05;;
69979;SDS011;57318;56.232;43.944;2022-12-24T12:43:57;95.25;;;24.80;;
69979;SDS011;57318;56.232;43.944;2022-12-24T12:52:07;107.07;;;31.08;;
69979;SDS011;57318;56.232;43.944;2022-12-24T12:57:35;103.30;;;32.75;;
69979;SDS011;57318;56.232;43.944;2022-12-24T13:05:22;93.90;;;24.85;;
69979;SDS011;57318;56.232;43.944;2022-12-24T13:13:39;95.25;;;28.67;;
69979;SDS011;57318;56.232;43.944;2022-12-24T13:16:31;99.78;;;29.45;;
69979;SDS011;57318;56.232;43.944;2022-12-24T13:21:34;91.40;;;26.50;;
69979;SDS011;57318;56.232;43.944;2022-12-24T13:24:06;82.13;;;27.57;;
69979;SDS011;57318;56.232;43.944;2022-12-24T13:26:55;82.63;;;25.88;;
69979;SDS011;57318;56.232;43.944;2022-12-24T13:29:30;83.13;;;21.92;;
69979;SDS011;57318;56.232;43.944;2022-12-24T13:32:39;83.35;;;24.10;;
69979;SDS011;57318;56.232;43.944;2022-12-24T13:37:46;76.30;;;25.95;;
69979;SDS011;57318;56.232;43.944;2022-12-24T13:40:15;76.88;;;22.00;;
69979;SDS011;57318;56.232;43.944;2022-12-24T13:58:44;60.80;;;18.08;;
69979;SDS011;57318;56.232;43.944;2022-12-24T14:01:17;67.68;;;22.17;;
69979;SDS011;57318;56.232;43.944;2022-12-24T14:03:46;59.97;;;22.00;;
69979;SDS011;57318;56.232;43.944;2022-12-24T14:09:08;56.25;;;20.60;;
69979;SDS011;57318;56.232;43.944;2022-12-24T14:16:58;46.60;;;16.58;;
69979;SDS011;57318;56.232;43.944;2022-12-24T14:19:31;48.38;;;16.60;;
69979;SDS011;57318;56.232;43.944;2022-12-24T14:22:19;47.05;;;18.65;;
69979;SDS011;57318;56.232;43.944;2022-12-24T14:25:13;50.50;;;17.75;;
69979;SDS011;57318;56.232;43.944;2022-12-24T14:27:43;42.40;;;16.38;;
69979;SDS011;57318;56.232;43.944;2022-12-24T14:30:19;42.58;;;15.93;;
69979;SDS011;57318;56.232;43.944;2022-12-24T14:32:49;39.20;;;14.98;;
69979;SDS011;57318;56.232;43.944;2022-12-24T14:37:44;35.05;;;13.48;;
69979;SDS011;57318;56.232;43.944;2022-12-24T14:40:15;33.00;;;13.18;;
69979;SDS011;57318;56.232;43.944;2022-12-24T14:42:55;33.38;;;12.55;;
69979;SDS011;57318;56.232;43.944;2022-12-24T14:45:53;30.75;;;12.88;;
69979;SDS011;57318;56.232;43.944;2022-12-24T14:48:24;32.05;;;11.70;;
69979;SDS011;57318;56.232;43.944;2022-12-24T14:56:29;19.85;;;9.00;;
69979;SDS011;57318;56.232;43.944;2022-12-24T14:58:55;18.73;;;8.07;;
69979;SDS011;57318;56.232;43.944;2022-12-24T15:01:27;22.88;;;8.88;;
69979;SDS011;57318;56.232;43.944;2022-12-24T15:06:30;18.85;;;8.02;;
69979;SDS011;57318;56.232;43.944;2022-12-24T15:08:58;17.88;;;7.97;;
69979;SDS011;57318;56.232;43.944;2022-12-24T15:11:25;15.82;;;7.40;;
69979;SDS011;57318;56.232;43.944;2022-12-24T15:13:51;15.60;;;7.03;;
69979;SDS011;57318;56.232;43.944;2022-12-24T15:16:28;14.85;;;7.57;;
69979;SDS011;57318;56.232;43.944;2022-12-24T15:18:58;15.32;;;6.47;;
69979;SDS011;57318;56.232;43.944;2022-12-24T15:21:32;15.70;;;7.68;;
69979;SDS011;57318;56.232;43.944;2022-12-24T15:24:02;13.68;;;7.07;;
69979;SDS011;57318;56.232;43.944;2022-12-24T15:28:58;15.15;;;7.72;;
69979;SDS011;57318;56.232;43.944;2022-12-24T15:31:25;15.68;;;7.70;;
69979;SDS011;57318;56.232;43.944;2022-12-24T15:33:53;14.23;;;7.07;;
69979;SDS011;57318;56.232;43.944;2022-12-24T15:36:31;16.33;;;7.05;;
69979;SDS011;57318;56.232;43.944;2022-12-24T15:39:00;14.07;;;8.20;;
69979;SDS011;57318;56.232;43.944;2022-12-24T15:41:50;14.20;;;6.80;;
69979;SDS011;57318;56.232;43.944;2022-12-24T15:44:38;15.55;;;6.53;;
69979;SDS011;57318;56.232;43.944;2022-12-24T15:47:07;21.20;;;8.65;;
69979;SDS011;57318;56.232;43.944;2022-12-24T15:49:42;17.63;;;8.35;;
69979;SDS011;57318;56.232;43.944;2022-12-24T15:52:13;15.90;;;7.80;;
69979;SDS011;57318;56.232;43.944;2022-12-24T15:54:44;16.65;;;7.82;;
69979;SDS011;57318;56.232;43.944;2022-12-24T15:57:33;13.13;;;6.78;;
69979;SDS011;57318;56.232;43.944;2022-12-24T15:59:58;14.68;;;7.40;;
69979;SDS011;57318;56.232;43.944;2022-12-24T16:02:43;11.48;;;6.93;;
69979;SDS011;57318;56.232;43.944;2022-12-24T16:11:05;18.35;;;7.60;;
69979;SDS011;57318;56.232;43.944;2022-12-24T16:13:29;18.27;;;8.18;;
69979;SDS011;57318;56.232;43.944;2022-12-24T16:21:01;17.92;;;8.25;;
69979;SDS011;57318;56.232;43.944;2022-12-24T16:23:33;15.40;;;7.75;;
69979;SDS011;57318;56.232;43.944;2022-12-24T16:26:03;18.05;;;8.73;;
69979;SDS011;57318;56.232;43.944;2022-12-24T16:28:30;20.65;;;9.73;;
69979;SDS011;57318;56.232;43.944;2022-12-24T16:30:56;14.23;;;6.70;;
69979;SDS011;57318;56.232;43.944;2022-12-24T16:33:22;15.80;;;7.03;;
69979;SDS011;57318;56.232;43.944;2022-12-24T16:35:48;18.13;;;8.33;;
69979;SDS011;57318;56.232;43.944;2022-12-24T16:38:14;11.50;;;5.93;;
69979;SDS011;57318;56.232;43.944;2022-12-24T16:43:07;14.73;;;6.70;;
69979;SDS011;57318;56.232;43.944;2022-12-24T16:45:51;17.90;;;7.63;;
69979;SDS011;57318;56.232;43.944;2022-12-24T16:48:21;17.90;;;8.73;;
69979;SDS011;57318;56.232;43.944;2022-12-24T16:50:50;13.07;;;6.68;;
69979;SDS011;57318;56.232;43.944;2022-12-24T16:53:17;17.23;;;7.95;;
69979;SDS011;57318;56.232;43.944;2022-12-24T16:55:44;15.77;;;6.85;;
69979;SDS011;57318;56.232;43.944;2022-12-24T16:58:12;13.63;;;6.47;;
69979;SDS011;57318;56.232;43.944;2022-12-24T17:00:38;18.13;;;7.35;;
69979;SDS011;57318;56.232;43.944;2022-12-24T17:03:04;17.00;;;7.72;;
69979;SDS011;57318;56.232;43.944;2022-12-24T17:08:00;15.20;;;6.65;;
69979;SDS011;57318;56.232;43.944;2022-12-24T17:10:26;20.75;;;10.30;;